Time;durP1;ratioP1;P1;durP2;ratioP2;P2;SDS_P1;SDS_P2;PMS_P1;PMS_P2;Temp;Humidity;BMP_temperature;BMP_pressure;BME280_temperature;BME280_humidity;BME280_pressure;Samples;Min_cycle;Max_cycle;Signal;HPM_P1;HPM_P2
2023/03/25 00:04:43;;;;;;;1999.90;999.90;;;9.90;99.90;;;;;;6733812;88;20613;-80
2023/03/25 00:14:53;;;;;;;1999.90;999.90;;;9.90;99.90;;;;;;6736812;88;20192;-81
2023/03/25 00:24:53;;;;;;;1999.90;999.90;;;9.70;99.90;;;;;;6740441;88;20199;-80
2023/03/25 00:34:54;;;;;;;1999.90;999.90;;;9.50;99.90;;;;;;6730987;88;20201;-81
2023/03/25 00:44:55;;;;;;;1999.90;999.90;;;9.50;99.90;;;;;;6728402;88;20598;-78
2023/03/25 00:54:55;;;;;;;1999.90;999.90;;;9.50;99.90;;;;;;6731989;88;20189;-80
2023/03/25 01:04:56;;;;;;;1999.90;999.90;;;9.50;99.90;;;;;;6728705;88;20214;-82
2023/03/25 01:14:57;;;;;;;1999.90;999.90;;;9.50;99.90;;;;;;6695817;88;20237;-79
2023/03/25 01:24:57;;;;;;;1999.90;999.90;;;9.50;99.90;;;;;;6730047;88;20247;-81
2023/03/25 01:34:58;;;;;;;1999.90;999.90;;;9.60;99.90;;;;;;6731788;88;20221;-81
2023/03/25 01:45:19;;;;;;;1999.90;999.90;;;9.80;99.90;;;;;;6726571;88;20212;-81
2023/03/25 01:55:20;;;;;;;1999.90;999.90;;;9.90;99.90;;;;;;6736494;88;20218;-80
2023/03/25 02:05:50;;;;;;;1999.90;999.90;;;9.80;99.90;;;;;;6733401;88;20218;-81
2023/03/25 02:15:59;;;;;;;1999.90;999.90;;;9.50;99.90;;;;;;6732639;88;20567;-81
2023/03/25 02:26:09;;;;;;;1999.90;999.90;;;9.50;99.90;;;;;;6745696;88;20403;-82
2023/03/25 02:36:18;;;;;;;1999.90;999.90;;;9.40;99.90;;;;;;6746291;88;20676;-78
2023/03/25 02:46:19;;;;;;;1999.90;999.90;;;9.40;99.90;;;;;;6737904;88;20241;-79
2023/03/25 02:56:24;;;;;;;1999.90;999.90;;;9.20;99.90;;;;;;6737054;88;20458;-78
2023/03/25 03:06:26;;;;;;;1999.90;999.90;;;9.40;99.90;;;;;;6732645;88;20185;-79
2023/03/25 03:16:48;;;;;;;1999.90;999.90;;;9.30;99.90;;;;;;6734210;88;20215;-78
2023/03/25 03:27:03;;;;;;;1999.90;999.90;;;9.40;99.90;;;;;;6738006;88;20217;-80
2023/03/25 03:37:05;;;;;;;1999.90;999.90;;;9.50;99.90;;;;;;6728998;88;20177;-79
2023/03/25 03:47:19;;;;;;;1999.90;999.90;;;9.30;99.90;;;;;;6732312;88;20807;-79
2023/03/25 03:57:26;;;;;;;1999.90;999.90;;;9.40;99.90;;;;;;6733856;88;20304;-78
2023/03/25 04:07:40;;;;;;;1999.90;999.90;;;9.40;99.90;;;;;;6733903;88;20197;-80
2023/03/25 04:17:41;;;;;;;1999.90;999.90;;;9.30;99.90;;;;;;6737334;87;20194;-80
2023/03/25 04:27:44;;;;;;;1999.90;999.90;;;9.20;99.90;;;;;;6759439;88;20741;-80
2023/03/25 04:37:47;;;;;;;1999.90;999.90;;;9.20;99.90;;;;;;6759157;88;20239;-80
2023/03/25 04:47:48;;;;;;;1999.90;999.90;;;9.20;99.90;;;;;;6752605;88;20193;-80
2023/03/25 04:57:51;;;;;;;1999.90;999.90;;;9.20;99.90;;;;;;6752591;88;20211;-80
2023/03/25 05:07:53;;;;;;;1999.90;999.90;;;9.30;99.90;;;;;;6748633;88;20190;-80
2023/03/25 05:17:54;;;;;;;1999.90;999.90;;;9.20;99.90;;;;;;6739660;88;20197;-80
2023/03/25 05:27:54;;;;;;;1999.90;999.90;;;9.10;99.90;;;;;;6751530;87;20337;-80
2023/03/25 05:37:55;;;;;;;1999.90;999.90;;;9.00;99.90;;;;;;6734814;88;20221;-81
2023/03/25 05:47:58;;;;;;;1999.90;999.90;;;9.10;99.90;;;;;;6734133;88;20248;-80
2023/03/25 05:57:58;;;;;;;1999.90;999.90;;;9.10;99.90;;;;;;6734385;88;20272;-80
2023/03/25 06:08:00;;;;;;;1999.90;999.90;;;9.10;99.90;;;;;;6767724;88;20828;-80
2023/03/25 06:18:01;;;;;;;1999.90;999.90;;;9.30;99.90;;;;;;6764622;88;20224;-80
2023/03/25 06:28:02;;;;;;;1999.90;999.90;;;9.40;99.90;;;;;;6738909;88;20225;-79
2023/03/25 06:38:03;;;;;;;1999.90;999.90;;;9.50;99.90;;;;;;6754954;88;20214;-79
2023/03/25 06:48:06;;;;;;;1999.90;999.90;;;9.70;99.90;;;;;;6765728;88;20213;-78
2023/03/25 06:58:07;;;;;;;1999.90;999.90;;;9.90;99.90;;;;;;6766688;88;20188;-80
2023/03/25 07:08:07;;;;;;;1999.90;999.90;;;10.20;99.90;;;;;;6729445;88;20632;-81
2023/03/25 07:18:08;;;;;;;1999.90;999.90;;;10.00;99.90;;;;;;6712548;88;20212;-79
2023/03/25 07:28:08;;;;;;;1999.90;999.90;;;9.20;99.90;;;;;;6742266;88;20207;-79
2023/03/25 07:38:09;;;;;;;1999.90;999.90;;;9.10;99.90;;;;;;6759521;88;20283;-81
2023/03/25 07:48:13;;;;;;;1999.90;999.90;;;9.40;99.90;;;;;;6766398;88;20192;-81
2023/03/25 07:58:22;;;;;;;1999.90;999.90;;;9.30;99.90;;;;;;6730221;88;20229;-82
2023/03/25 08:08:23;;;;;;;1999.90;999.90;;;8.40;99.90;;;;;;6694618;89;21008;-81
2023/03/25 08:18:24;;;;;;;1999.90;999.90;;;8.20;99.90;;;;;;6709481;88;20215;-82
2023/03/25 08:28:25;;;;;;;1999.90;999.90;;;8.30;99.90;;;;;;6739517;88;20664;-80
2023/03/25 08:38:30;;;;;;;1999.90;999.90;;;8.80;99.90;;;;;;6710882;88;20186;-81
2023/03/25 08:48:31;;;;;;;1999.90;999.90;;;10.10;99.90;;;;;;6713856;88;20187;-80
2023/03/25 08:58:31;;;;;;;1999.90;999.90;;;11.20;99.90;;;;;;6748533;88;20214;-80
2023/03/25 09:08:32;;;;;;;1999.90;999.90;;;11.20;99.90;;;;;;6750467;87;20186;-80
2023/03/25 09:18:35;;;;;;;1999.90;999.90;;;10.80;99.90;;;;;;6755365;88;20204;-80
2023/03/25 09:28:35;;;;;;;1999.90;999.90;;;10.90;99.90;;;;;;6752379;88;20304;-80
2023/03/25 09:38:36;;;;;;;1999.90;999.90;;;11.20;99.90;;;;;;6750795;88;20750;-79
2023/03/25 09:48:42;;;;;;;1999.90;999.90;;;11.50;99.90;;;;;;6753219;88;20620;-80
2023/03/25 09:58:47;;;;;;;1999.90;999.90;;;11.70;99.90;;;;;;6753411;88;20187;-80
2023/03/25 10:19:30;;;;;;;1999.90;999.90;;;11.80;99.90;;;;;;6741778;88;20204;-79
2023/03/25 10:29:38;;;;;;;1999.90;999.90;;;12.70;99.90;;;;;;6733353;88;20253;-78
2023/03/25 10:39:44;;;;;;;1999.90;999.90;;;12.10;99.90;;;;;;6747885;88;20281;-78
2023/03/25 10:49:46;;;;;;;1999.90;999.90;;;11.80;99.90;;;;;;6733175;88;20199;-77
2023/03/25 11:00:17;;;;;;;1999.90;999.90;;;12.70;99.90;;;;;;6718407;88;20614;-78
2023/03/25 11:10:22;;;;;;;1999.90;999.90;;;13.60;99.90;;;;;;6729048;88;20204;-80
2023/03/25 11:20:34;;;;;;;;;;;14.00;99.90;;;;;;6741733;88;20198;-78
2023/03/25 11:30:35;;;;;;;1999.90;999.90;;;13.70;99.90;;;;;;6722237;88;20545;-79
2023/03/25 11:40:35;;;;;;;1999.90;999.90;;;13.70;99.90;;;;;;6724692;88;20239;-78
2023/03/25 11:50:36;;;;;;;1999.90;999.90;;;14.10;99.90;;;;;;6731602;88;20631;-78
2023/03/25 12:00:40;;;;;;;1999.90;999.90;;;13.10;99.90;;;;;;6732451;88;20206;-78
2023/03/25 12:11:06;;;;;;;1999.90;999.90;;;14.00;99.90;;;;;;6728621;88;20197;-78
2023/03/25 12:21:23;;;;;;;1999.90;999.90;;;14.80;99.90;;;;;;6730314;88;20593;-76
2023/03/25 12:31:29;;;;;;;1999.90;999.90;;;12.80;99.90;;;;;;6738817;88;20161;-77
2023/03/25 12:42:00;;;;;;;1999.90;999.90;;;13.50;99.90;;;;;;6734001;88;20214;-78
2023/03/25 12:52:29;;;;;;;1999.90;999.90;;;14.20;99.90;;;;;;6736022;88;20190;-78
2023/03/25 13:02:51;;;;;;;1999.90;999.90;;;15.40;99.90;;;;;;6736466;88;20209;-77
2023/03/25 13:12:55;;;;;;;1999.90;999.90;;;14.40;99.90;;;;;;6734289;88;20201;-77
2023/03/25 13:23:00;;;;;;;1999.90;999.90;;;14.40;99.90;;;;;;6726094;88;20186;-77
2023/03/25 13:33:23;;;;;;;1999.90;999.90;;;14.70;99.00;;;;;;6726207;88;20640;-77
2023/03/25 13:43:50;;;;;;;1999.90;999.90;;;15.30;98.20;;;;;;6728361;88;20261;-77
2023/03/25 13:53:58;;;;;;;1999.90;999.90;;;14.40;98.50;;;;;;6729695;88;20284;-78
2023/03/25 14:04:24;;;;;;;1999.90;999.90;;;14.00;99.00;;;;;;6733028;88;20237;-77
2023/03/25 14:14:25;;;;;;;1999.90;999.90;;;13.90;99.20;;;;;;6724250;88;20211;-78
2023/03/25 14:24:32;;;;;;;1999.90;999.90;;;13.60;99.90;;;;;;6733593;88;20257;-77
2023/03/25 14:34:33;;;;;;;1999.90;999.90;;;11.50;99.90;;;;;;6730615;88;20193;-78
2023/03/25 14:44:39;;;;;;;1999.90;999.90;;;10.90;99.90;;;;;;6736709;88;20231;-78
2023/03/25 14:54:42;;;;;;;1999.90;999.90;;;11.30;99.90;;;;;;6744339;88;20307;-78
2023/03/25 15:04:44;;;;;;;1999.90;999.90;;;12.50;99.90;;;;;;6731988;88;20209;-78
2023/03/25 15:14:49;;;;;;;1999.90;999.90;;;13.40;99.90;;;;;;6731196;88;20656;-78
2023/03/25 15:24:57;;;;;;;1999.90;999.90;;;13.80;99.90;;;;;;6730555;88;20190;-78
2023/03/25 15:35:25;;;;;;;1999.90;999.90;;;13.90;99.90;;;;;;6741259;88;20263;-78
2023/03/25 15:45:40;;;;;;;1999.90;999.90;;;13.90;99.90;;;;;;6740732;88;20177;-80
2023/03/25 15:55:48;;;;;;;1999.90;999.90;;;14.20;99.90;;;;;;6729344;88;20244;-78
2023/03/25 16:05:55;;;;;;;1999.90;999.90;;;13.80;99.90;;;;;;6736492;88;20193;-78
2023/03/25 16:15:57;;;;;;;1999.90;999.90;;;14.00;99.90;;;;;;6751557;77;20203;-80
2023/03/25 16:25:58;;;;;;;1999.90;999.90;;;14.10;99.90;;;;;;6742913;88;20203;-80
2023/03/25 16:36:04;;;;;;;1999.90;999.90;;;13.60;99.90;;;;;;6738978;88;20199;-79
2023/03/25 16:46:08;;;;;;;1999.90;999.90;;;13.40;99.90;;;;;;6743061;88;20271;-79
2023/03/25 16:56:08;;;;;;;1999.90;999.90;;;13.40;99.90;;;;;;6751277;88;20254;-78
2023/03/25 17:06:34;;;;;;;1999.90;999.90;;;13.30;99.90;;;;;;6728453;88;20697;-78
2023/03/25 17:16:36;;;;;;;1999.90;999.90;;;13.20;99.90;;;;;;6729505;88;20193;-79
2023/03/25 17:27:04;;;;;;;1999.90;999.90;;;13.20;99.90;;;;;;6741953;88;20220;-77
2023/03/25 17:37:07;;;;;;;1999.90;999.90;;;13.20;99.90;;;;;;6739613;88;20305;-78
2023/03/25 17:47:13;;;;;;;1999.90;999.90;;;13.10;99.90;;;;;;6739401;88;20231;-77
2023/03/25 17:57:18;;;;;;;1999.90;999.90;;;13.00;99.90;;;;;;6741042;88;20251;-77
2023/03/25 18:07:20;;;;;;;1999.90;999.90;;;12.40;99.90;;;;;;6733676;88;20703;-78
2023/03/25 18:17:20;;;;;;;1999.90;999.90;;;12.10;99.90;;;;;;6740069;88;20697;-78
2023/03/25 18:27:21;;;;;;;1999.90;999.90;;;11.80;99.90;;;;;;6741792;88;20191;-80
2023/03/25 18:37:21;;;;;;;1999.90;999.90;;;11.80;99.90;;;;;;6734236;88;20211;-79
2023/03/25 18:47:23;;;;;;;1999.90;999.90;;;11.80;99.90;;;;;;6748037;88;20737;-78
2023/03/25 18:57:24;;;;;;;1999.90;999.90;;;11.90;99.90;;;;;;6742309;88;20188;-79
2023/03/25 19:07:24;;;;;;;1999.90;999.90;;;11.90;99.90;;;;;;6729684;88;20229;-76
2023/03/25 19:17:25;;;;;;;1999.90;999.90;;;11.90;99.90;;;;;;6741174;88;20241;-77
2023/03/25 19:27:25;;;;;;;1999.90;999.90;;;11.70;99.90;;;;;;6736528;88;20239;-78
2023/03/25 19:37:29;;;;;;;1999.90;999.90;;;11.60;99.90;;;;;;6741666;88;21044;-78
2023/03/25 19:47:30;;;;;;;1999.90;999.90;;;11.60;99.90;;;;;;6742398;88;20185;-79
2023/03/25 19:57:31;;;;;;;1999.90;999.90;;;11.50;99.90;;;;;;6742078;88;20219;-79
2023/03/25 20:07:32;;;;;;;1999.90;999.90;;;11.50;99.90;;;;;;6748706;88;20288;-78
2023/03/25 20:17:33;;;;;;;1999.90;999.90;;;11.40;99.90;;;;;;6742523;88;20180;-79
2023/03/25 20:27:37;;;;;;;1999.90;999.90;;;11.20;99.90;;;;;;6738108;88;20188;-79
2023/03/25 20:37:39;;;;;;;1999.90;999.90;;;11.00;99.90;;;;;;6733688;88;20188;-78
2023/03/25 20:47:40;;;;;;;1999.90;999.90;;;11.00;99.90;;;;;;6743283;88;20189;-81
2023/03/25 20:57:41;;;;;;;1999.90;999.90;;;10.90;99.90;;;;;;6747987;88;20210;-81
2023/03/25 21:07:42;;;;;;;1999.90;999.90;;;10.70;99.90;;;;;;6746809;88;20676;-81
2023/03/25 21:17:43;;;;;;;1999.90;999.90;;;10.90;99.90;;;;;;6745899;88;20290;-81
2023/03/25 21:27:43;;;;;;;1999.90;999.90;;;10.80;99.90;;;;;;6753920;88;20486;-80
2023/03/25 21:37:45;;;;;;;1999.90;999.90;;;10.80;99.90;;;;;;6752135;88;20517;-80
2023/03/25 21:47:46;;;;;;;1999.90;999.90;;;10.80;99.90;;;;;;6748514;88;20195;-80
2023/03/25 21:57:47;;;;;;;1999.90;999.90;;;10.80;99.90;;;;;;6753479;88;20265;-82
2023/03/25 22:17:50;;;;;;;1999.90;999.90;;;10.80;99.90;;;;;;6766265;87;20546;-82
2023/03/25 22:27:51;;;;;;;1999.90;999.90;;;10.70;99.90;;;;;;6763498;87;20682;-82
2023/03/25 22:37:54;;;;;;;1999.90;999.90;;;10.70;99.90;;;;;;6759025;88;20208;-81
2023/03/25 22:47:55;;;;;;;1999.90;999.90;;;10.70;99.90;;;;;;6758336;88;20192;-81
2023/03/25 22:57:55;;;;;;;1999.90;999.90;;;10.60;99.90;;;;;;6741951;88;20185;-81
2023/03/25 23:07:56;;;;;;;1999.90;999.90;;;10.40;99.90;;;;;;6748630;88;20301;-82
2023/03/25 23:17:56;;;;;;;1999.90;999.90;;;10.40;99.90;;;;;;6744589;88;20664;-81
2023/03/25 23:27:57;;;;;;;1999.90;999.90;;;10.30;99.90;;;;;;6741124;88;20284;-81
2023/03/25 23:37:58;;;;;;;1999.90;999.90;;;10.30;99.90;;;;;;6743050;88;20231;-82
2023/03/25 23:48:00;;;;;;;1999.90;999.90;;;10.20;99.90;;;;;;6741413;88;20203;-82
2023/03/25 23:58:01;;;;;;;1999.90;999.90;;;9.90;99.90;;;;;;6758344;88;20212;-81
